Time;durP1;ratioP1;P1;durP2;ratioP2;P2;SDS_P1;SDS_P2;PMS_P1;PMS_P2;Temp;Humidity;BMP_temperature;BMP_pressure;BME280_temperature;BME280_humidity;BME280_pressure;Samples;Min_cycle;Max_cycle;Signal;HPM_P1;HPM_P2
2022/05/27 00:00:00;;;;;;;2.63;1.23;;;;;;;;;;4995119;28;20041;-85
2022/05/27 00:02:25;;;;;;;2.88;1.30;;;;;;;;;;4976705;28;20034;-85
2022/05/27 00:04:51;;;;;;;3.47;1.63;;;;;;;;;;4979301;28;20030;-85
2022/05/27 00:07:16;;;;;;;2.45;1.23;;;;;;;;;;4976981;28;20034;-85
2022/05/27 00:09:42;;;;;;;3.00;1.38;;;;;;;;;;4997698;28;20046;-83
2022/05/27 00:12:07;;;;;;;4.38;2.20;;;;;;;;;;4977956;28;20045;-85
2022/05/27 00:14:33;;;;;;;3.92;1.65;;;;;;;;;;4992599;28;20544;-84
2022/05/27 00:16:58;;;;;;;2.72;1.48;;;;;;;;;;4986129;28;21483;-84
2022/05/27 00:19:24;;;;;;;5.53;2.25;;;;;;;;;;4986778;28;20404;-85
2022/05/27 00:21:49;;;;;;;3.20;1.42;;;;;;;;;;4997248;28;20040;-86
2022/05/27 00:24:15;;;;;;;4.53;1.83;;;;;;;;;;4978455;28;20497;-85
2022/05/27 00:26:43;;;;;;;3.45;1.90;;;;;;;;;;4981638;28;20046;-87
2022/05/27 00:29:08;;;;;;;3.75;1.95;;;;;;;;;;4987842;28;20117;-86
2022/05/27 00:31:33;;;;;;;4.28;1.85;;;;;;;;;;4979316;28;20113;-84
2022/05/27 00:33:59;;;;;;;6.35;2.42;;;;;;;;;;4989364;28;20061;-85
2022/05/27 00:36:24;;;;;;;4.60;1.98;;;;;;;;;;4959083;28;20029;-84
2022/05/27 00:38:50;;;;;;;3.38;1.77;;;;;;;;;;4972399;28;20177;-86
2022/05/27 00:41:15;;;;;;;2.58;1.48;;;;;;;;;;4965497;28;20042;-85
2022/05/27 00:43:42;;;;;;;3.30;1.88;;;;;;;;;;4973119;28;20584;-84
2022/05/27 00:46:22;;;;;;;3.08;1.65;;;;;;;;;;4964547;28;20038;-85
2022/05/27 00:48:50;;;;;;;4.45;1.85;;;;;;;;;;4998000;28;20848;-86
2022/05/27 00:51:18;;;;;;;2.53;1.40;;;;;;;;;;4977295;28;20553;-86
2022/05/27 00:54:07;;;;;;;6.35;2.10;;;;;;;;;;4977118;28;20066;-85
2022/05/27 00:56:34;;;;;;;3.47;1.70;;;;;;;;;;4965371;28;20040;-84
2022/05/27 00:59:07;;;;;;;3.92;2.10;;;;;;;;;;4985947;28;20946;-85
2022/05/27 01:01:33;;;;;;;3.80;2.20;;;;;;;;;;4992980;28;20806;-85
2022/05/27 01:04:00;;;;;;;4.07;2.33;;;;;;;;;;4992580;28;20026;-86
2022/05/27 01:06:26;;;;;;;4.13;2.30;;;;;;;;;;4997709;28;20501;-85
2022/05/27 01:08:51;;;;;;;3.00;1.80;;;;;;;;;;4966911;28;20038;-86
2022/05/27 01:11:17;;;;;;;4.22;2.47;;;;;;;;;;4977385;28;20030;-85
2022/05/27 01:13:50;;;;;;;4.15;2.47;;;;;;;;;;4996168;28;20525;-85
2022/05/27 01:16:19;;;;;;;3.60;2.22;;;;;;;;;;4979257;28;20105;-85
2022/05/27 01:22:27;;;;;;;3.97;2.30;;;;;;;;;;5000846;28;20157;-84
2022/05/27 01:25:17;;;;;;;4.30;2.47;;;;;;;;;;4977333;28;20117;-84
2022/05/27 01:27:59;;;;;;;4.15;2.30;;;;;;;;;;5000413;28;20506;-85
2022/05/27 01:30:30;;;;;;;4.72;2.45;;;;;;;;;;5001691;28;20046;-85
2022/05/27 01:33:10;;;;;;;4.25;2.15;;;;;;;;;;4992376;28;20048;-84
2022/05/27 01:35:41;;;;;;;5.10;2.50;;;;;;;;;;4993674;28;20464;-84
2022/05/27 01:38:59;;;;;;;5.93;2.78;;;;;;;;;;4994383;28;20038;-85
2022/05/27 01:41:45;;;;;;;5.22;2.72;;;;;;;;;;4957127;28;20509;-85
2022/05/27 01:44:33;;;;;;;5.55;3.03;;;;;;;;;;4995511;28;20045;-85
2022/05/27 01:47:01;;;;;;;4.55;2.35;;;;;;;;;;4996105;28;20043;-85
2022/05/27 01:49:32;;;;;;;4.10;2.50;;;;;;;;;;4999687;28;20038;-84
2022/05/27 01:52:23;;;;;;;4.72;2.58;;;;;;;;;;4977099;28;20041;-85
2022/05/27 01:55:08;;;;;;;3.45;2.08;;;;;;;;;;4996370;28;20770;-84
2022/05/27 01:57:48;;;;;;;4.35;2.53;;;;;;;;;;4994248;28;20042;-85
2022/05/27 02:00:19;;;;;;;5.53;2.63;;;;;;;;;;4995882;28;20450;-84
2022/05/27 02:02:50;;;;;;;4.32;2.38;;;;;;;;;;4999805;28;20042;-85
2022/05/27 02:05:21;;;;;;;4.57;2.42;;;;;;;;;;4965415;28;20038;-84
2022/05/27 02:07:53;;;;;;;4.78;2.63;;;;;;;;;;4998727;28;20088;-85
2022/05/27 02:10:46;;;;;;;4.32;2.65;;;;;;;;;;4984938;28;20481;-84
2022/05/27 02:13:18;;;;;;;4.60;2.60;;;;;;;;;;4980718;28;20062;-84
2022/05/27 02:15:45;;;;;;;6.25;2.80;;;;;;;;;;4998050;28;20045;-84
2022/05/27 02:18:21;;;;;;;3.53;2.08;;;;;;;;;;4980772;28;20034;-84
2022/05/27 02:20:54;;;;;;;4.60;2.67;;;;;;;;;;4981229;28;20049;-84
2022/05/27 02:23:37;;;;;;;5.63;3.05;;;;;;;;;;4984261;28;20477;-84
2022/05/27 02:26:06;;;;;;;4.38;2.50;;;;;;;;;;4989676;28;20042;-84
2022/05/27 02:28:37;;;;;;;3.92;2.20;;;;;;;;;;4988806;28;20088;-85
2022/05/27 02:31:25;;;;;;;4.35;2.50;;;;;;;;;;4995336;28;20030;-84
2022/05/27 02:36:45;;;;;;;6.47;2.60;;;;;;;;;;4995880;28;20089;-84
2022/05/27 02:39:10;;;;;;;3.63;2.05;;;;;;;;;;4994998;28;20458;-84
2022/05/27 02:41:57;;;;;;;4.65;2.30;;;;;;;;;;4988398;28;20117;-84
2022/05/27 02:44:41;;;;;;;6.10;2.20;;;;;;;;;;4994816;28;20039;-84
2022/05/27 02:47:22;;;;;;;7.55;2.15;;;;;;;;;;4994501;28;20035;-85
2022/05/27 02:50:11;;;;;;;4.35;2.50;;;;;;;;;;4988563;28;20525;-83
2022/05/27 02:52:44;;;;;;;3.38;1.75;;;;;;;;;;4996152;28;20541;-83
2022/05/27 02:55:29;;;;;;;4.53;2.58;;;;;;;;;;4985314;28;20049;-84
2022/05/27 02:57:56;;;;;;;4.95;2.10;;;;;;;;;;4994287;28;20505;-84
2022/05/27 03:00:25;;;;;;;6.38;2.70;;;;;;;;;;4979987;28;20470;-84
2022/05/27 03:02:50;;;;;;;5.30;2.45;;;;;;;;;;4975285;28;20372;-85
2022/05/27 03:05:17;;;;;;;3.88;2.17;;;;;;;;;;4976423;28;20034;-84
2022/05/27 03:07:58;;;;;;;3.88;2.20;;;;;;;;;;4983078;28;20040;-84
2022/05/27 03:10:44;;;;;;;6.40;2.80;;;;;;;;;;4995917;28;20092;-83
2022/05/27 03:13:36;;;;;;;5.45;2.45;;;;;;;;;;4978182;28;20042;-84
2022/05/27 03:16:26;;;;;;;5.13;2.78;;;;;;;;;;4994286;28;20494;-84
2022/05/27 03:19:24;;;;;;;6.20;3.28;;;;;;;;;;4983042;28;20628;-85
2022/05/27 03:22:04;;;;;;;;;;;;;;;;;;4994827;28;20113;-83
2022/05/27 03:24:51;;;;;;;6.15;3.20;;;;;;;;;;4996321;28;20389;-84
2022/05/27 03:27:45;;;;;;;6.03;2.60;;;;;;;;;;4993326;28;20039;-85
2022/05/27 03:30:19;;;;;;;4.82;2.33;;;;;;;;;;4993402;28;20490;-84
2022/05/27 03:32:51;;;;;;;4.38;2.70;;;;;;;;;;4994967;28;20045;-86
2022/05/27 03:35:39;;;;;;;5.32;3.00;;;;;;;;;;4979110;28;20034;-84
2022/05/27 03:38:10;;;;;;;4.03;2.10;;;;;;;;;;4994855;28;20041;-83
2022/05/27 03:40:45;;;;;;;4.70;2.78;;;;;;;;;;4981473;28;20154;-83
2022/05/27 03:43:11;;;;;;;4.25;2.72;;;;;;;;;;4981230;28;20041;-84
2022/05/27 03:45:48;;;;;;;4.45;2.35;;;;;;;;;;4994501;28;20038;-81
2022/05/27 03:48:14;;;;;;;5.47;2.75;;;;;;;;;;4973218;28;20450;-83
2022/05/27 03:50:39;;;;;;;4.57;2.47;;;;;;;;;;4972729;28;20109;-84
2022/05/27 03:53:05;;;;;;;4.18;2.35;;;;;;;;;;4982408;28;20042;-85
2022/05/27 03:55:30;;;;;;;3.95;2.30;;;;;;;;;;4994283;28;20034;-84
2022/05/27 03:57:55;;;;;;;4.43;2.63;;;;;;;;;;4978702;28;20037;-84
2022/05/27 04:00:21;;;;;;;5.15;2.70;;;;;;;;;;4982576;28;20030;-85
2022/05/27 04:02:46;;;;;;;3.95;2.40;;;;;;;;;;4986615;28;20052;-85
2022/05/27 04:05:15;;;;;;;4.18;2.47;;;;;;;;;;4993874;28;20038;-84
2022/05/27 04:07:41;;;;;;;6.75;2.85;;;;;;;;;;4997514;28;20038;-84
2022/05/27 04:10:08;;;;;;;3.65;2.15;;;;;;;;;;4990774;28;20040;-85
2022/05/27 04:12:34;;;;;;;3.67;1.98;;;;;;;;;;4994795;28;20033;-85
2022/05/27 04:14:59;;;;;;;4.30;2.47;;;;;;;;;;4971396;28;20097;-84
2022/05/27 04:17:30;;;;;;;3.08;1.83;;;;;;;;;;4969597;28;20054;-86
2022/05/27 04:20:00;;;;;;;4.35;2.20;;;;;;;;;;4975140;28;20038;-84
2022/05/27 04:22:26;;;;;;;4.63;2.22;;;;;;;;;;4994986;28;20042;-82
2022/05/27 04:24:51;;;;;;;4.50;2.40;;;;;;;;;;4995298;28;20042;-85
2022/05/27 04:27:20;;;;;;;3.92;2.10;;;;;;;;;;4981281;28;20052;-84
2022/05/27 04:29:49;;;;;;;3.50;2.15;;;;;;;;;;4976862;28;20084;-84
2022/05/27 04:32:14;;;;;;;7.40;2.80;;;;;;;;;;4982728;28;20100;-85
2022/05/27 04:34:40;;;;;;;5.20;2.70;;;;;;;;;;4988265;28;20038;-84
2022/05/27 04:37:06;;;;;;;5.18;2.72;;;;;;;;;;4978712;28;20686;-84
2022/05/27 04:39:32;;;;;;;3.83;2.00;;;;;;;;;;4996580;28;20449;-85
2022/05/27 04:41:57;;;;;;;4.35;1.98;;;;;;;;;;4982490;28;20121;-85
2022/05/27 04:44:23;;;;;;;4.35;2.13;;;;;;;;;;4977373;28;20453;-85
2022/05/27 04:46:48;;;;;;;3.40;2.00;;;;;;;;;;4986083;28;20056;-84
2022/05/27 04:51:58;;;;;;;4.50;2.42;;;;;;;;;;4993059;28;20049;-85
2022/05/27 04:54:25;;;;;;;3.60;2.25;;;;;;;;;;4986203;28;20038;-85
2022/05/27 04:56:51;;;;;;;3.10;1.88;;;;;;;;;;4984475;28;20874;-85
2022/05/27 04:59:16;;;;;;;3.47;2.20;;;;;;;;;;4974485;28;20105;-84
2022/05/27 05:01:42;;;;;;;4.45;2.30;;;;;;;;;;4976087;28;20034;-85
2022/05/27 05:04:07;;;;;;;3.53;1.92;;;;;;;;;;4992476;28;20037;-85
2022/05/27 05:06:32;;;;;;;5.47;2.30;;;;;;;;;;4993963;28;20038;-85
2022/05/27 05:08:58;;;;;;;3.67;2.20;;;;;;;;;;4977225;28;20054;-84
2022/05/27 05:11:23;;;;;;;5.05;2.03;;;;;;;;;;4977022;28;20544;-85
2022/05/27 05:13:48;;;;;;;3.88;2.15;;;;;;;;;;4980014;28;20401;-84
2022/05/27 05:16:14;;;;;;;3.47;2.00;;;;;;;;;;4976272;28;20034;-84
2022/05/27 05:18:39;;;;;;;4.40;2.50;;;;;;;;;;4979968;28;20080;-85
2022/05/27 05:21:04;;;;;;;3.25;1.75;;;;;;;;;;4974216;28;20046;-82
2022/05/27 05:23:30;;;;;;;4.80;2.38;;;;;;;;;;4995709;28;20649;-84
2022/05/27 05:25:55;;;;;;;4.70;2.53;;;;;;;;;;4982012;28;20055;-84
2022/05/27 05:28:20;;;;;;;4.55;2.42;;;;;;;;;;4967676;28;20089;-84
2022/05/27 05:30:46;;;;;;;4.03;2.15;;;;;;;;;;4963747;28;20042;-84
2022/05/27 05:33:11;;;;;;;4.97;2.40;;;;;;;;;;4977826;28;20122;-83
2022/05/27 05:35:36;;;;;;;3.83;1.95;;;;;;;;;;4981989;28;20117;-84
2022/05/27 05:38:03;;;;;;;3.88;2.00;;;;;;;;;;4976502;28;20026;-83
2022/05/27 05:40:29;;;;;;;4.00;1.93;;;;;;;;;;4985095;28;20486;-83
2022/05/27 05:42:54;;;;;;;3.38;1.75;;;;;;;;;;4981827;28;20038;-84
2022/05/27 05:45:20;;;;;;;4.63;2.10;;;;;;;;;;4974438;28;20073;-84
2022/05/27 05:47:45;;;;;;;4.80;1.77;;;;;;;;;;4969189;28;20038;-84
2022/05/27 05:50:13;;;;;;;4.43;1.52;;;;;;;;;;4958329;28;20059;-83
2022/05/27 05:52:39;;;;;;;3.45;1.55;;;;;;;;;;4971445;28;20093;-83
2022/05/27 05:55:05;;;;;;;2.38;1.17;;;;;;;;;;4973379;28;20042;-86
2022/05/27 05:57:30;;;;;;;1.92;1.08;;;;;;;;;;4975695;28;20092;-84
2022/05/27 05:59:59;;;;;;;2.08;0.98;;;;;;;;;;4960923;28;20490;-84
2022/05/27 06:02:25;;;;;;;4.53;2.08;;;;;;;;;;4979822;28;20026;-83
2022/05/27 06:04:51;;;;;;;2.60;1.33;;;;;;;;;;4978066;28;20754;-84
2022/05/27 06:07:16;;;;;;;2.72;1.52;;;;;;;;;;4984433;28;20253;-85
2022/05/27 06:09:41;;;;;;;3.45;1.50;;;;;;;;;;4991576;28;20120;-85
2022/05/27 06:12:08;;;;;;;2.20;1.10;;;;;;;;;;4976431;28;20038;-84
2022/05/27 06:14:35;;;;;;;2.50;1.23;;;;;;;;;;4980637;28;20100;-85
2022/05/27 06:17:00;;;;;;;2.45;1.20;;;;;;;;;;4978406;28;20029;-83
2022/05/27 06:19:26;;;;;;;2.85;1.00;;;;;;;;;;4994165;28;20114;-84
2022/05/27 06:21:51;;;;;;;1.90;1.00;;;;;;;;;;4991337;28;20039;-84
2022/05/27 06:24:17;;;;;;;1.15;0.60;;;;;;;;;;4976796;28;20501;-84
2022/05/27 06:26:42;;;;;;;3.00;0.95;;;;;;;;;;4990160;28;20039;-83
2022/05/27 06:34:37;;;;;;;1.13;0.60;;;;;;;;;;4993459;28;20040;-84
2022/05/27 06:37:05;;;;;;;1.52;0.70;;;;;;;;;;4993333;28;20030;-84
2022/05/27 06:39:32;;;;;;;2.92;0.75;;;;;;;;;;4981803;28;20501;-82
2022/05/27 06:41:58;;;;;;;3.15;1.13;;;;;;;;;;4988195;28;20382;-85
2022/05/27 06:44:23;;;;;;;1.65;1.00;;;;;;;;;;4977020;28;20172;-86
2022/05/27 06:46:51;;;;;;;1.20;0.60;;;;;;;;;;4982303;28;20034;-84
2022/05/27 06:49:17;;;;;;;1.63;1.00;;;;;;;;;;4988006;28;20567;-85
2022/05/27 06:51:43;;;;;;;4.25;0.90;;;;;;;;;;4968552;28;20505;-85
2022/05/27 06:54:09;;;;;;;2.05;1.02;;;;;;;;;;4968943;28;20038;-87
2022/05/27 06:56:39;;;;;;;1.58;0.85;;;;;;;;;;4972328;28;20031;-84
2022/05/27 06:59:06;;;;;;;4.05;1.08;;;;;;;;;;4993104;28;20113;-85
2022/05/27 07:01:32;;;;;;;1.48;0.75;;;;;;;;;;4995447;28;20039;-86
2022/05/27 07:03:57;;;;;;;1.45;0.68;;;;;;;;;;4981977;28;20826;-85
2022/05/27 07:06:24;;;;;;;1.95;0.90;;;;;;;;;;4977927;28;20034;-82
2022/05/27 07:08:49;;;;;;;2.75;0.90;;;;;;;;;;4981683;28;20513;-83
2022/05/27 07:11:15;;;;;;;2.45;0.90;;;;;;;;;;4978524;28;20026;-85
2022/05/27 07:13:40;;;;;;;3.35;0.95;;;;;;;;;;4985875;28;20454;-84
2022/05/27 07:16:06;;;;;;;2.72;0.90;;;;;;;;;;4981708;28;20390;-85
2022/05/27 07:18:32;;;;;;;3.50;0.73;;;;;;;;;;4993381;28;20045;-84
2022/05/27 07:21:05;;;;;;;1.42;0.60;;;;;;;;;;4994273;28;20048;-87
2022/05/27 07:23:31;;;;;;;2.05;0.65;;;;;;;;;;4965351;28;20977;-84
2022/05/27 07:25:57;;;;;;;2.45;0.70;;;;;;;;;;4979609;28;20176;-84
2022/05/27 07:28:22;;;;;;;4.68;0.70;;;;;;;;;;4988652;28;20045;-84
2022/05/27 07:30:48;;;;;;;2.05;0.80;;;;;;;;;;4979563;28;20142;-86
2022/05/27 07:33:13;;;;;;;2.00;0.68;;;;;;;;;;4980810;28;20043;-87
2022/05/27 07:35:38;;;;;;;1.67;0.80;;;;;;;;;;4981901;28;20414;-85
2022/05/27 07:38:04;;;;;;;1.88;0.80;;;;;;;;;;4994499;28;20034;-83
2022/05/27 07:40:32;;;;;;;2.20;0.70;;;;;;;;;;4987772;28;20038;-87
2022/05/27 07:42:57;;;;;;;1.23;0.52;;;;;;;;;;4988292;28;20042;-86
2022/05/27 07:45:26;;;;;;;2.10;0.70;;;;;;;;;;4977629;28;20038;-84
2022/05/27 07:47:55;;;;;;;1.33;0.55;;;;;;;;;;4993077;28;20046;-86
2022/05/27 07:50:20;;;;;;;2.75;0.60;;;;;;;;;;4982980;28;20030;-85
2022/05/27 07:52:46;;;;;;;1.77;0.77;;;;;;;;;;4980400;28;20482;-85
2022/05/27 07:55:13;;;;;;;1.90;0.65;;;;;;;;;;4987263;28;20030;-84
2022/05/27 07:57:45;;;;;;;5.82;0.60;;;;;;;;;;4983437;28;20037;-85
2022/05/27 08:00:21;;;;;;;1.33;0.65;;;;;;;;;;4996423;28;20456;-86
2022/05/27 08:02:46;;;;;;;1.65;0.50;;;;;;;;;;4980290;28;20434;-85
2022/05/27 08:05:15;;;;;;;2.92;0.60;;;;;;;;;;4977852;28;20034;-87
2022/05/27 08:07:40;;;;;;;1.73;0.57;;;;;;;;;;4995314;28;20406;-84
2022/05/27 08:10:07;;;;;;;1.85;0.60;;;;;;;;;;4978992;28;20062;-83
2022/05/27 08:12:32;;;;;;;4.65;0.80;;;;;;;;;;4982969;28;20044;-86
2022/05/27 08:14:58;;;;;;;2.08;0.55;;;;;;;;;;4978814;28;20034;-83
2022/05/27 08:17:23;;;;;;;0.95;0.40;;;;;;;;;;4993795;28;20476;-85
2022/05/27 08:19:49;;;;;;;1.33;0.45;;;;;;;;;;4988174;28;20093;-84
2022/05/27 08:22:14;;;;;;;3.17;0.75;;;;;;;;;;4986373;28;20030;-83
2022/05/27 08:24:41;;;;;;;1.48;0.50;;;;;;;;;;4980082;28;20736;-84
2022/05/27 08:27:06;;;;;;;1.10;0.65;;;;;;;;;;4985034;28;20049;-83
2022/05/27 08:29:32;;;;;;;1.20;0.60;;;;;;;;;;4978938;28;20041;-84
2022/05/27 08:32:03;;;;;;;1.52;0.43;;;;;;;;;;4981938;28;20064;-84
2022/05/27 08:40:01;;;;;;;2.78;0.50;;;;;;;;;;4995691;28;20012;-83
2022/05/27 08:42:41;;;;;;;3.78;0.50;;;;;;;;;;4982041;28;20045;-85
2022/05/27 08:45:14;;;;;;;1.58;0.65;;;;;;;;;;4990993;28;20460;-85
2022/05/27 08:47:47;;;;;;;1.40;0.50;;;;;;;;;;4980060;28;20044;-85
2022/05/27 08:50:23;;;;;;;2.00;0.55;;;;;;;;;;4995935;28;20397;-84
2022/05/27 08:53:02;;;;;;;1.80;0.68;;;;;;;;;;4982608;28;20088;-86
2022/05/27 09:01:41;;;;;;;1.40;0.45;;;;;;;;;;4993486;28;20040;-84
2022/05/27 09:04:20;;;;;;;3.70;0.70;;;;;;;;;;4979028;28;20412;-85
2022/05/27 09:06:55;;;;;;;1.67;0.30;;;;;;;;;;4970930;28;20563;-84
2022/05/27 09:09:23;;;;;;;3.13;0.70;;;;;;;;;;4980793;28;20046;-82
2022/05/27 09:12:04;;;;;;;2.70;0.50;;;;;;;;;;4986229;28;20399;-83
2022/05/27 09:14:31;;;;;;;3.58;0.80;;;;;;;;;;5008361;28;20084;-82
2022/05/27 09:17:07;;;;;;;1.55;0.52;;;;;;;;;;4986576;28;20037;-83
2022/05/27 09:19:41;;;;;;;3.85;0.60;;;;;;;;;;4991231;28;20042;-83
2022/05/27 09:22:34;;;;;;;1.40;0.40;;;;;;;;;;4980084;28;20049;-83
2022/05/27 09:25:10;;;;;;;1.38;0.45;;;;;;;;;;4980136;28;20034;-84
2022/05/27 09:27:42;;;;;;;1.50;0.30;;;;;;;;;;4985035;28;20405;-83
2022/05/27 09:30:10;;;;;;;2.15;0.47;;;;;;;;;;4992705;28;20042;-81
2022/05/27 09:32:51;;;;;;;1.40;0.50;;;;;;;;;;4996972;28;20042;-85
2022/05/27 09:35:25;;;;;;;0.60;0.30;;;;;;;;;;4986016;28;20038;-83
2022/05/27 09:37:53;;;;;;;1.33;0.52;;;;;;;;;;4980561;28;20050;-83
2022/05/27 09:40:51;;;;;;;1.88;0.40;;;;;;;;;;4996782;28;20038;-84
2022/05/27 09:43:39;;;;;;;3.88;0.43;;;;;;;;;;4991578;28;20054;-84
2022/05/27 09:46:09;;;;;;;1.10;0.30;;;;;;;;;;4993494;28;20049;-85
2022/05/27 09:48:34;;;;;;;2.15;0.68;;;;;;;;;;4977625;28;20512;-85
2022/05/27 09:51:02;;;;;;;1.70;0.50;;;;;;;;;;4990150;28;20042;-84
2022/05/27 09:53:31;;;;;;;2.60;0.57;;;;;;;;;;4996114;28;20037;-84
2022/05/27 09:56:04;;;;;;;1.15;0.45;;;;;;;;;;4979686;28;20042;-84
2022/05/27 09:58:40;;;;;;;1.73;0.38;;;;;;;;;;4995322;28;20421;-84
2022/05/27 10:01:25;;;;;;;5.30;0.47;;;;;;;;;;4994989;28;20481;-84
2022/05/27 10:04:12;;;;;;;1.83;0.50;;;;;;;;;;4985620;28;20213;-86
2022/05/27 10:06:37;;;;;;;2.37;0.67;;;;;;;;;;4983994;28;20022;-84
2022/05/27 10:09:06;;;;;;;2.33;0.60;;;;;;;;;;4991161;28;20038;-84
2022/05/27 10:11:33;;;;;;;2.03;0.45;;;;;;;;;;4978435;28;20041;-84
2022/05/27 10:14:10;;;;;;;;;;;;;;;;;;4981585;28;20050;-85
2022/05/27 10:16:39;;;;;;;;;;;;;;;;;;4997894;28;20415;-85
2022/05/27 10:19:14;;;;;;;1.67;0.47;;;;;;;;;;4983964;28;20332;-82
2022/05/27 10:21:58;;;;;;;2.42;0.80;;;;;;;;;;4977553;28;20375;-85
2022/05/27 10:24:39;;;;;;;2.00;0.60;;;;;;;;;;5004329;28;20060;-83
2022/05/27 10:27:14;;;;;;;2.25;0.68;;;;;;;;;;4995813;28;20058;-83
2022/05/27 10:29:50;;;;;;;1.42;0.50;;;;;;;;;;4973702;28;20046;-83
2022/05/27 10:32:35;;;;;;;7.73;0.87;;;;;;;;;;4986308;28;20053;-84
2022/05/27 10:35:06;;;;;;;3.05;0.70;;;;;;;;;;4981895;28;20393;-81
2022/05/27 10:38:10;;;;;;;5.72;1.15;;;;;;;;;;5009395;28;20456;-81
2022/05/27 10:40:48;;;;;;;0.73;0.38;;;;;;;;;;4989044;28;20494;-83
2022/05/27 10:43:18;;;;;;;1.63;0.70;;;;;;;;;;4994345;28;20394;-83
2022/05/27 10:45:49;;;;;;;3.95;0.75;;;;;;;;;;4993281;28;20568;-81
2022/05/27 10:48:36;;;;;;;2.78;0.63;;;;;;;;;;4986399;28;20046;-81
2022/05/27 10:51:28;;;;;;;1.20;0.40;;;;;;;;;;4997512;28;20584;-82
2022/05/27 10:54:21;;;;;;;0.98;0.35;;;;;;;;;;4994055;28;20593;-83
2022/05/27 11:03:02;;;;;;;2.05;0.50;;;;;;;;;;4996690;28;20045;-82
2022/05/27 11:05:27;;;;;;;2.08;0.60;;;;;;;;;;4996120;28;20042;-84
2022/05/27 11:08:10;;;;;;;2.53;0.63;;;;;;;;;;4993548;28;20081;-82
2022/05/27 11:10:59;;;;;;;2.90;0.82;;;;;;;;;;4993427;28;20273;-82
2022/05/27 11:17:01;;;;;;;2.08;0.47;;;;;;;;;;4987148;28;20095;-82
2022/05/27 11:19:41;;;;;;;1.70;0.50;;;;;;;;;;4995620;28;20052;-87
2022/05/27 11:22:17;;;;;;;2.10;0.57;;;;;;;;;;4980368;28;20210;-82
2022/05/27 11:24:52;;;;;;;2.63;0.52;;;;;;;;;;4973513;28;20066;-81
2022/05/27 11:27:29;;;;;;;4.88;0.82;;;;;;;;;;4994628;28;20046;-82
2022/05/27 11:30:14;;;;;;;2.03;0.35;;;;;;;;;;4996147;28;20035;-82
2022/05/27 11:32:42;;;;;;;1.85;0.57;;;;;;;;;;4995140;28;20032;-82
2022/05/27 11:35:21;;;;;;;1.80;0.40;;;;;;;;;;5009575;28;20085;-82
2022/05/27 11:38:16;;;;;;;3.35;0.60;;;;;;;;;;4995517;28;20128;-83
2022/05/27 11:41:06;;;;;;;1.50;0.70;;;;;;;;;;4994776;28;20060;-82
2022/05/27 11:43:53;;;;;;;4.57;0.60;;;;;;;;;;4996814;28;20038;-84
2022/05/27 11:46:33;;;;;;;2.90;0.70;;;;;;;;;;4993631;28;20037;-82
2022/05/27 11:49:18;;;;;;;3.60;0.75;;;;;;;;;;4996946;28;20437;-83
2022/05/27 11:51:57;;;;;;;2.53;0.68;;;;;;;;;;4985675;28;20509;-82
2022/05/27 11:54:50;;;;;;;1.20;0.40;;;;;;;;;;4975601;28;20393;-81
2022/05/27 11:57:33;;;;;;;1.35;0.45;;;;;;;;;;4994867;28;20185;-82
2022/05/27 12:00:11;;;;;;;1.73;0.73;;;;;;;;;;4994540;28;20133;-81
2022/05/27 12:02:42;;;;;;;2.15;0.60;;;;;;;;;;4985387;28;20049;-82
2022/05/27 12:05:16;;;;;;;2.50;0.60;;;;;;;;;;4995467;28;20038;-81
2022/05/27 12:08:19;;;;;;;1.55;0.50;;;;;;;;;;4979875;28;20038;-81
2022/05/27 12:11:09;;;;;;;2.65;0.70;;;;;;;;;;4962509;28;20388;-81
2022/05/27 12:13:45;;;;;;;2.28;0.82;;;;;;;;;;4977456;28;20070;-81
2022/05/27 12:16:15;;;;;;;3.67;0.70;;;;;;;;;;4977481;28;20512;-82
2022/05/27 12:18:52;;;;;;;1.75;0.50;;;;;;;;;;4985856;28;20038;-81
2022/05/27 12:21:24;;;;;;;1.13;0.43;;;;;;;;;;4979749;28;20041;-81
2022/05/27 12:23:56;;;;;;;1.33;0.45;;;;;;;;;;4985550;28;20505;-81
2022/05/27 12:26:30;;;;;;;1.55;0.63;;;;;;;;;;4979326;28;20636;-81
2022/05/27 12:28:56;;;;;;;4.40;0.73;;;;;;;;;;4979115;28;20042;-80
2022/05/27 12:31:23;;;;;;;0.90;0.40;;;;;;;;;;4985612;28;20042;-82
2022/05/27 12:33:49;;;;;;;1.65;0.50;;;;;;;;;;4979216;28;20386;-83
2022/05/27 12:36:22;;;;;;;1.83;0.60;;;;;;;;;;4977521;28;20088;-80
2022/05/27 12:38:49;;;;;;;2.25;0.57;;;;;;;;;;4978895;28;20109;-81
2022/05/27 12:41:30;;;;;;;3.03;1.02;;;;;;;;;;4979382;28;20492;-81
2022/05/27 12:43:59;;;;;;;2.58;0.68;;;;;;;;;;5001161;28;20065;-81
2022/05/27 12:46:31;;;;;;;4.20;1.40;;;;;;;;;;4995837;28;20173;-81
2022/05/27 12:49:27;;;;;;;2.08;0.60;;;;;;;;;;4997116;28;20037;-80
2022/05/27 12:51:54;;;;;;;1.70;0.60;;;;;;;;;;4990978;28;20454;-81
2022/05/27 12:54:48;;;;;;;1.40;0.57;;;;;;;;;;4996224;28;20038;-80
2022/05/27 13:03:52;;;;;;;1.17;0.40;;;;;;;;;;4992013;28;20500;-84
2022/05/27 13:06:25;;;;;;;7.53;1.30;;;;;;;;;;4953076;28;20034;-82
2022/05/27 13:08:52;;;;;;;4.20;0.40;;;;;;;;;;4989174;28;20121;-81
2022/05/27 13:11:24;;;;;;;3.38;0.85;;;;;;;;;;5000199;28;20585;-81
2022/05/27 13:14:15;;;;;;;1.45;0.40;;;;;;;;;;4993032;28;20038;-81
2022/05/27 13:16:43;;;;;;;2.13;0.57;;;;;;;;;;4985593;28;20133;-81
2022/05/27 13:19:23;;;;;;;2.33;0.60;;;;;;;;;;4971176;28;20411;-81
2022/05/27 13:21:51;;;;;;;2.30;0.40;;;;;;;;;;4985419;28;20042;-81
2022/05/27 13:24:17;;;;;;;2.45;0.30;;;;;;;;;;5007827;28;20038;-81
2022/05/27 13:26:46;;;;;;;1.70;0.40;;;;;;;;;;4993709;28;20112;-80
2022/05/27 13:29:36;;;;;;;2.03;0.50;;;;;;;;;;4977144;28;20088;-82
2022/05/27 13:32:14;;;;;;;2.97;0.68;;;;;;;;;;4987021;28;20614;-83
2022/05/27 13:35:13;;;;;;;2.47;0.63;;;;;;;;;;4975131;28;20378;-81
2022/05/27 13:37:38;;;;;;;2.10;0.60;;;;;;;;;;4976645;28;20035;-81
2022/05/27 13:40:07;;;;;;;1.30;0.60;;;;;;;;;;4999451;28;20524;-81
2022/05/27 13:42:51;;;;;;;1.30;0.50;;;;;;;;;;4974523;28;20135;-81
2022/05/27 13:45:27;;;;;;;3.50;0.90;;;;;;;;;;4989315;28;20157;-80
2022/05/27 13:48:09;;;;;;;2.88;0.47;;;;;;;;;;4992453;28;20079;-81
2022/05/27 13:50:35;;;;;;;1.55;0.88;;;;;;;;;;4966154;28;20072;-81
2022/05/27 13:53:15;;;;;;;1.52;0.57;;;;;;;;;;4994046;28;20101;-82
2022/05/27 13:55:43;;;;;;;1.50;0.50;;;;;;;;;;4980805;28;20100;-81
2022/05/27 13:58:09;;;;;;;1.70;0.50;;;;;;;;;;4981456;28;20044;-80
2022/05/27 14:00:39;;;;;;;1.08;0.47;;;;;;;;;;4993451;28;20065;-81
2022/05/27 14:03:06;;;;;;;1.60;0.43;;;;;;;;;;5003743;28;20061;-82
2022/05/27 14:05:32;;;;;;;2.40;0.80;;;;;;;;;;4987717;28;20505;-81
2022/05/27 14:08:00;;;;;;;2.67;0.52;;;;;;;;;;4981177;28;20038;-83
2022/05/27 14:10:28;;;;;;;6.03;0.70;;;;;;;;;;4992230;28;20046;-81
2022/05/27 14:12:56;;;;;;;2.08;0.47;;;;;;;;;;4977345;28;20065;-82
2022/05/27 14:15:35;;;;;;;1.83;0.50;;;;;;;;;;4977456;28;20041;-82
2022/05/27 14:18:00;;;;;;;2.70;0.65;;;;;;;;;;4984720;28;20045;-80
2022/05/27 14:20:29;;;;;;;4.60;0.77;;;;;;;;;;4979199;28;20584;-80
2022/05/27 14:23:02;;;;;;;1.77;0.40;;;;;;;;;;4996509;28;20121;-82
2022/05/27 14:25:33;;;;;;;1.88;0.43;;;;;;;;;;4994753;28;20144;-82
2022/05/27 14:28:00;;;;;;;1.20;0.43;;;;;;;;;;4998698;28;20030;-81
2022/05/27 14:30:38;;;;;;;1.27;0.40;;;;;;;;;;5008760;28;20046;-82
2022/05/27 14:33:22;;;;;;;1.35;0.40;;;;;;;;;;4976290;28;20478;-82
2022/05/27 14:35:48;;;;;;;1.83;0.70;;;;;;;;;;4982053;28;20030;-82
2022/05/27 14:38:16;;;;;;;1.38;0.60;;;;;;;;;;4986967;28;20045;-83
2022/05/27 14:40:45;;;;;;;2.85;0.50;;;;;;;;;;4980027;28;20665;-82
2022/05/27 14:43:24;;;;;;;2.33;0.38;;;;;;;;;;4986417;28;20052;-80
2022/05/27 14:45:53;;;;;;;1.85;0.57;;;;;;;;;;4998488;28;20509;-80
2022/05/27 14:48:25;;;;;;;2.45;0.75;;;;;;;;;;4996587;28;20034;-80
2022/05/27 14:50:51;;;;;;;1.80;0.50;;;;;;;;;;4976858;28;20383;-81
2022/05/27 14:53:17;;;;;;;2.72;0.90;;;;;;;;;;4980822;28;20034;-82
2022/05/27 14:55:43;;;;;;;2.20;0.52;;;;;;;;;;4981781;28;20035;-81
2022/05/27 14:58:09;;;;;;;1.05;0.40;;;;;;;;;;4994855;28;20045;-80
2022/05/27 15:00:41;;;;;;;2.55;0.40;;;;;;;;;;4975621;28;20034;-80
2022/05/27 15:03:27;;;;;;;3.03;0.68;;;;;;;;;;4987677;28;20030;-82
2022/05/27 15:05:52;;;;;;;2.92;0.88;;;;;;;;;;4981733;28;20117;-82
2022/05/27 15:08:18;;;;;;;1.85;0.60;;;;;;;;;;4993577;28;20034;-81
2022/05/27 15:10:43;;;;;;;2.43;1.03;;;;;;;;;;4995383;28;20375;-81
2022/05/27 15:13:29;;;;;;;2.13;0.50;;;;;;;;;;4994556;28;20034;-82
2022/05/27 15:16:10;;;;;;;2.63;0.75;;;;;;;;;;4988279;28;20053;-82
2022/05/27 15:18:42;;;;;;;3.45;0.50;;;;;;;;;;4993766;28;20061;-80
2022/05/27 15:21:11;;;;;;;3.30;0.93;;;;;;;;;;4983434;28;20857;-80
2022/05/27 15:23:46;;;;;;;5.50;1.15;;;;;;;;;;4979252;28;20034;-80
2022/05/27 15:34:44;;;;;;;2.15;0.50;;;;;;;;;;4993450;28;20049;-81
2022/05/27 15:37:10;;;;;;;3.83;0.65;;;;;;;;;;4992948;28;20045;-81
2022/05/27 15:39:35;;;;;;;2.42;0.43;;;;;;;;;;4993523;28;20034;-82
2022/05/27 15:42:00;;;;;;;2.58;0.95;;;;;;;;;;4986883;28;20038;-80
2022/05/27 15:44:26;;;;;;;0.57;0.30;;;;;;;;;;4996689;28;20046;-79
2022/05/27 15:46:51;;;;;;;2.17;0.57;;;;;;;;;;4992403;28;20044;-81
2022/05/27 15:49:18;;;;;;;2.58;0.60;;;;;;;;;;4992262;28;20108;-80
2022/05/27 15:51:44;;;;;;;1.80;0.40;;;;;;;;;;4985843;28;20044;-82
2022/05/27 15:54:09;;;;;;;2.20;0.52;;;;;;;;;;5002764;28;20064;-79
2022/05/27 15:56:34;;;;;;;1.38;0.45;;;;;;;;;;4979602;28;20364;-80
2022/05/27 15:59:00;;;;;;;2.30;0.65;;;;;;;;;;4968833;28;20066;-79
2022/05/27 16:01:25;;;;;;;1.13;0.40;;;;;;;;;;4982084;28;20034;-80